Time;durP1;ratioP1;P1;durP2;ratioP2;P2;SDS_P1;SDS_P2;PMS_P1;PMS_P2;Temp;Humidity;BMP_temperature;BMP_pressure;BME280_temperature;BME280_humidity;BME280_pressure;Samples;Min_cycle;Max_cycle;Signal;HPM_P1;HPM_P2
2021/04/13 17:46:43;;;;;;;3.13;0.95;;;;;;;;;;5103525;27;20399;-67
2021/04/13 17:49:09;;;;;;;3.78;0.70;;;;;;;;;;5061861;28;20031;-69
2021/04/13 17:51:35;;;;;;;3.53;0.90;;;;;;;;;;5071525;28;20124;-69
2021/04/13 17:54:01;;;;;;;2.83;0.90;;;;;;;;;;5065122;28;20847;-68
2021/04/13 17:56:32;;;;;;;2.83;0.80;;;;;;;;;;5086535;28;20048;-68
2021/04/13 17:58:59;;;;;;;3.08;0.80;;;;;;;;;;5064063;28;20028;-67
2021/04/13 18:01:27;;;;;;;3.45;1.10;;;;;;;;;;5087274;28;20036;-77
2021/04/13 18:04:05;;;;;;;2.55;0.65;;;;;;;;;;5065106;28;21407;-70
2021/04/13 18:06:40;;;;;;;3.50;1.00;;;;;;;;;;5084924;28;20036;-73
2021/04/13 18:09:09;;;;;;;4.50;0.85;;;;;;;;;;5066170;28;20832;-73
2021/04/13 18:11:37;;;;;;;2.72;0.80;;;;;;;;;;5089405;28;20036;-71
2021/04/13 18:14:06;;;;;;;1.75;0.60;;;;;;;;;;5061476;28;20410;-72
2021/04/13 18:16:47;;;;;;;2.05;0.80;;;;;;;;;;5088095;28;20358;-69
2021/04/13 18:19:22;;;;;;;0.65;0.50;;;;;;;;;;5064338;28;20554;-65
2021/04/13 18:21:50;;;;;;;2.38;0.80;;;;;;;;;;5088924;28;20036;-68
2021/04/13 18:24:20;;;;;;;2.38;0.80;;;;;;;;;;5068699;28;20460;-61
2021/04/13 18:26:47;;;;;;;2.05;0.77;;;;;;;;;;5084975;28;20547;-72
2021/04/13 18:29:21;;;;;;;2.97;0.70;;;;;;;;;;5065234;28;20037;-68
2021/04/13 18:32:07;;;;;;;1.55;0.60;;;;;;;;;;5077851;28;21819;-64
2021/04/13 18:36:11;;;;;;;3.45;1.00;;;;;;;22.01;31.65;103220.59;4890100;28;20396;-62
2021/04/13 18:38:41;;;;;;;2.38;0.60;;;;;;;21.55;32.03;103215.84;4982801;28;20594;-60
2021/04/13 18:41:18;;;;;;;3.35;0.90;;;;;;;21.35;32.18;103215.75;5016094;28;20049;-60
2021/04/13 18:43:49;;;;;;;3.70;0.80;;;;;;;21.49;32.41;103216.38;4969814;28;20041;-64
2021/04/13 18:46:20;;;;;;;1.10;0.68;;;;;;;22.01;31.54;103221.41;4991143;28;162127;-73
2021/04/13 18:48:56;;;;;;;2.10;0.50;;;;;;;21.60;31.97;103219.78;4942172;28;22052;-65
2021/04/13 18:51:27;;;;;;;2.30;0.80;;;;;;;21.54;32.32;103224.75;4967017;28;20057;-65
2021/04/13 18:54:10;;;;;;;1.15;0.60;;;;;;;21.57;32.34;103219.22;4967439;28;20104;-66
2021/04/13 18:56:42;;;;;;;1.48;0.70;;;;;;;21.61;32.12;103224.09;4991962;28;20030;-61
2021/04/13 18:59:25;;;;;;;2.20;0.90;;;;;;;21.11;32.77;103225.78;4999887;28;20121;-63
2021/04/13 19:01:56;;;;;;;1.85;0.70;;;;;;;23.16;37.29;103230.41;5006049;28;20034;-69
2021/04/13 19:04:22;;;;;;;1.92;0.60;;;;;;;22.37;31.17;103212.97;4994456;28;20392;-62
2021/04/13 19:06:56;;;;;;;2.40;0.70;;;;;;;22.10;31.62;103230.44;4981658;28;20073;-60
2021/04/13 19:09:32;;;;;;;3.35;0.85;;;;;;;21.88;32.07;103228.78;4986044;28;20489;-63
2021/04/13 19:12:08;;;;;;;2.40;0.70;;;;;;;21.78;32.19;103232.41;4964174;28;20686;-61
2021/04/13 19:14:42;;;;;;;1.90;0.75;;;;;;;21.73;32.45;103232.81;4994038;28;20026;-64
2021/04/13 19:17:16;;;;;;;3.45;0.70;;;;;;;21.69;32.47;103241.97;4963919;28;20581;-63
2021/04/13 19:20:02;;;;;;;1.73;0.60;;;;;;;21.68;32.34;103242.97;4990634;28;20080;-65
2021/04/13 19:22:30;;;;;;;2.47;0.80;;;;;;;21.66;32.59;103239.59;4967750;28;20144;-62
2021/04/13 19:25:05;;;;;;;1.48;0.52;;;;;;;21.67;32.61;103236.81;5024969;28;20026;-65
2021/04/13 19:27:44;;;;;;;2.03;1.15;;;;;;;21.66;32.62;103245.75;4966906;28;20034;-60
2021/04/13 19:30:27;;;;;;;2.00;0.75;;;;;;;21.66;32.68;103235.13;4996312;28;20041;-62
2021/04/13 19:32:57;;;;;;;1.95;0.68;;;;;;;21.52;32.70;103219.59;4955128;28;20037;-61
2021/04/13 19:35:29;;;;;;;2.05;0.65;;;;;;;21.66;32.58;103245.75;4994314;28;20433;-63
2021/04/13 19:38:08;;;;;;;1.13;0.63;;;;;;;21.59;32.60;103249.91;4999044;28;20050;-64
2021/04/13 19:44:09;;;;;;;4.57;1.60;;;;;;;10.48;41.08;103257.22;5035672;27;20396;-69
2021/04/13 19:46:35;;;;;;;5.57;1.92;;;;;;;8.71;45.89;103255.63;5054630;28;20033;-69
2021/04/13 19:49:06;;;;;;;5.22;1.92;;;;;;;7.01;50.71;103261.22;4882574;28;20075;-70
2021/04/13 19:51:38;;;;;;;9.10;2.45;;;;;;;5.85;55.17;103269.69;4985782;28;20033;-69
2021/04/13 19:54:28;;;;;;;5.55;2.03;;;;;;;4.90;58.74;103251.56;4970769;28;20141;-71
2021/04/13 19:56:56;;;;;;;6.18;2.00;;;;;;;4.57;60.66;103273.53;4986000;28;20023;-72
2021/04/13 19:59:28;;;;;;;7.13;2.10;;;;;;;4.16;62.01;103265.47;4968979;28;20448;-72
2021/04/13 20:01:54;;;;;;;7.15;2.30;;;;;;;3.89;63.65;103270.94;4967391;28;71571;-72
2021/04/13 20:04:26;;;;;;;3.30;1.70;;;;;;;3.68;64.62;103269.44;4983352;28;20396;-72
2021/04/13 20:06:51;;;;;;;6.10;2.00;;;;;;;3.47;65.49;103273.06;5002917;28;20160;-72
2021/04/13 20:09:20;;;;;;;6.65;2.33;;;;;;;3.29;66.01;103253.50;4989595;28;20045;-72
2021/04/13 20:11:54;;;;;;;5.35;2.17;;;;;;;3.24;66.70;103265.56;4936254;28;211757;-71
2021/04/13 20:14:27;;;;;;;4.97;2.40;;;;;;;3.17;66.92;103263.03;4982319;28;79748;-71
2021/04/13 20:17:11;;;;;;;11.20;2.97;;;;;;;3.06;67.64;103259.72;5019583;28;20485;-71
2021/04/13 20:19:38;;;;;;;8.77;2.80;;;;;;;3.00;68.07;103261.44;4988521;28;20063;-71
2021/04/13 20:23:36;;;;;;;7.95;2.72;;;;;;;2.91;67.60;103258.09;4840025;28;62983;-72
2021/04/13 20:26:17;;;;;;;8.82;3.13;;;;;;;2.77;69.11;103265.91;5007273;28;20042;-71
2021/04/13 20:29:01;;;;;;;8.02;3.25;;;;;;;2.69;69.12;103262.50;4941847;28;20141;-71
2021/04/13 20:31:37;;;;;;;10.10;3.15;;;;;;;2.68;68.69;103264.22;4996456;28;20037;-71
2021/04/13 20:34:43;;;;;;;10.55;3.03;;;;;;;2.55;69.75;103266.91;4976096;28;20536;-69
2021/04/13 20:40:07;;;;;;;8.25;2.85;;;;;;;2.41;70.53;103270.38;4994953;28;20037;-72
2021/04/13 20:42:39;;;;;;;10.68;3.70;;;;;;;2.33;70.50;103269.56;4911587;28;20041;-71
2021/04/13 20:45:06;;;;;;;11.50;3.88;;;;;;;2.31;71.07;103261.00;4989086;28;20500;-72
2021/04/13 20:47:39;;;;;;;16.27;4.68;;;;;;;2.33;70.84;103255.84;4976929;28;20585;-69
2021/04/13 20:50:20;;;;;;;12.38;4.20;;;;;;;2.17;71.22;103256.81;4968189;28;20092;-69
2021/04/13 20:52:51;;;;;;;13.87;4.30;;;;;;;2.19;71.17;103263.63;4719186;28;70456;-70
2021/04/13 20:55:22;;;;;;;12.45;5.32;;;;;;;2.13;71.03;103267.06;4918451;28;20057;-71
2021/04/13 20:57:54;;;;;;;13.63;4.65;;;;;;;1.88;71.24;103233.75;4988204;28;20407;-71
2021/04/13 21:00:27;;;;;;;9.23;4.05;;;;;;;1.96;71.23;103255.13;4900393;28;20070;-70
2021/04/13 21:03:25;;;;;;;7.07;2.97;;;;;;;2.01;71.33;103269.69;4935121;28;20798;-71
2021/04/13 21:06:02;;;;;;;7.40;3.28;;;;;;;1.90;71.65;103261.16;4897757;28;109821;-71
2021/04/13 21:08:36;;;;;;;9.18;2.90;;;;;;;1.90;71.71;103263.72;4929071;28;20104;-71
2021/04/13 21:11:11;;;;;;;6.57;2.90;;;;;;;1.88;72.52;103268.03;4924160;28;66422;-71
2021/04/13 21:13:40;;;;;;;8.80;3.35;;;;;;;1.84;72.25;103260.34;4996152;28;20042;-71
2021/04/13 21:16:12;;;;;;;9.80;3.42;;;;;;;1.74;72.33;103254.34;4996466;28;20038;-70
2021/04/13 21:18:41;;;;;;;6.03;3.05;;;;;;;1.76;72.66;103262.91;4970771;28;20515;-71
2021/04/13 21:21:17;;;;;;;4.78;2.40;;;;;;;1.73;72.64;103268.03;4984505;28;20563;-71
2021/04/13 21:23:49;;;;;;;4.93;2.20;;;;;;;1.71;73.24;103264.63;4966891;28;20050;-71
2021/04/13 21:26:26;;;;;;;7.40;3.28;;;;;;;1.67;73.24;103256.09;4987600;28;20137;-71
2021/04/13 21:28:56;;;;;;;7.60;2.75;;;;;;;1.63;74.02;103264.66;4968152;28;20059;-71
2021/04/13 21:31:44;;;;;;;6.38;3.83;;;;;;;1.51;73.15;103255.25;4988041;28;20428;-71
2021/04/13 21:34:18;;;;;;;9.35;2.90;;;;;;;1.54;73.65;103256.09;4951140;28;20396;-71
2021/04/13 21:36:46;;;;;;;5.70;2.90;;;;;;;1.48;73.29;103251.84;4970911;28;20082;-70
2021/04/13 21:39:15;;;;;;;7.35;2.88;;;;;;;1.45;74.09;103246.72;4964883;28;20030;-70
2021/04/13 21:42:08;;;;;;;9.77;2.88;;;;;;;1.47;73.44;103262.97;4965944;28;20039;-71
2021/04/13 21:44:45;;;;;;;5.13;2.40;;;;;;;1.35;73.43;103261.25;4959821;28;20183;-70
2021/04/13 21:47:18;;;;;;;8.75;2.65;;;;;;;1.30;74.51;103251.84;4977502;28;20374;-70
2021/04/13 21:49:45;;;;;;;6.70;2.42;;;;;;;1.29;75.21;103260.41;4957843;28;20058;-71
2021/04/13 21:52:28;;;;;;;6.40;2.28;;;;;;;1.16;75.13;103241.59;4992458;28;20105;-70
2021/04/13 21:55:07;;;;;;;2.67;1.80;;;;;;;1.35;76.04;103265.53;4958855;28;20385;-71
2021/04/13 21:58:08;;;;;;;5.75;2.58;;;;;;;1.34;75.84;103258.69;4978002;28;20114;-70
2021/04/13 22:00:49;;;;;;;8.77;2.50;;;;;;;1.32;74.97;103260.41;4956088;28;20088;-71
2021/04/13 22:03:34;;;;;;;6.15;2.35;;;;;;;1.24;75.16;103260.38;4972483;28;20108;-71
2021/04/13 22:06:05;;;;;;;6.53;2.40;;;;;;;1.28;75.48;103264.69;4970645;28;20520;-70
2021/04/13 22:08:39;;;;;;;7.95;2.72;;;;;;;1.17;75.83;103251.00;4972193;28;20377;-71
2021/04/13 22:11:07;;;;;;;6.05;3.08;;;;;;;1.22;75.26;103269.81;4976407;28;20702;-71
2021/04/13 22:13:38;;;;;;;7.55;2.88;;;;;;;1.14;75.77;103266.41;4950285;28;20038;-71
2021/04/13 22:16:05;;;;;;;6.22;2.58;;;;;;;1.13;75.31;103265.53;4994789;28;20504;-70
2021/04/13 22:18:41;;;;;;;7.03;2.55;;;;;;;1.12;75.97;103266.41;4975114;28;20043;-70
2021/04/13 22:21:30;;;;;;;8.75;2.70;;;;;;;1.13;75.88;103264.69;4977461;28;20488;-70
2021/04/13 22:24:02;;;;;;;5.18;2.72;;;;;;;1.08;75.53;103262.13;4973311;28;20043;-71
2021/04/13 22:26:34;;;;;;;6.78;3.00;;;;;;;1.04;75.58;103251.84;4970776;28;20396;-71
2021/04/13 22:29:23;;;;;;;9.52;3.28;;;;;;;0.98;76.41;103255.25;4961847;28;20291;-72
2021/04/13 22:31:59;;;;;;;7.93;3.00;;;;;;;0.84;75.83;103244.13;4972939;28;20035;-70
2021/04/13 22:34:53;;;;;;;7.13;3.35;;;;;;;0.91;76.35;103258.69;4956611;28;20042;-70
2021/04/13 22:37:26;;;;;;;7.65;2.45;;;;;;;0.87;76.13;103256.94;4974271;28;20567;-71
2021/04/13 22:39:53;;;;;;;4.25;2.38;;;;;;;0.82;76.86;103251.81;4954603;28;20049;-71
2021/04/13 22:42:22;;;;;;;7.00;3.47;;;;;;;0.75;77.01;103255.25;4973942;28;20030;-71
2021/04/13 22:44:50;;;;;;;9.25;2.78;;;;;;;0.69;77.23;103226.16;4956046;28;20410;-70
2021/04/13 22:47:16;;;;;;;7.95;2.80;;;;;;;0.83;77.40;103244.97;4967649;28;20519;-71
2021/04/13 22:49:41;;;;;;;6.25;2.90;;;;;;;0.88;76.64;103245.84;4976055;28;20038;-71
2021/04/13 22:52:25;;;;;;;4.78;2.80;;;;;;;0.86;76.85;103244.97;4974937;28;20042;-71
2021/04/13 22:55:14;;;;;;;6.25;2.85;;;;;;;0.84;76.80;103236.44;4972994;28;20045;-71
2021/04/13 22:57:54;;;;;;;7.15;2.78;;;;;;;0.75;77.41;103233.88;4969498;28;20051;-71
2021/04/13 23:00:29;;;;;;;10.60;2.95;;;;;;;0.78;78.02;103237.28;4984259;28;20034;-71
2021/04/13 23:59:07;;;;;;;5.88;2.55;;;;;;;0.28;80.10;103220.06;4969234;28;20567;-70
